sensor_id;sensor_type;location;lat;lon;timestamp;P1;durP1;ratioP1;P2;durP2;ratioP2
66087;SDS011;52872;52.994;6.940;2023-04-03T00:01:16;1.38;;;1.20;;
66087;SDS011;52872;52.994;6.940;2023-04-03T00:03:43;1.95;;;0.93;;
66087;SDS011;52872;52.994;6.940;2023-04-03T00:06:11;1.75;;;1.27;;
66087;SDS011;52872;52.994;6.940;2023-04-03T00:08:38;2.60;;;1.10;;
66087;SDS011;52872;52.994;6.940;2023-04-03T00:11:06;3.15;;;0.90;;
66087;SDS011;52872;52.994;6.940;2023-04-03T00:13:34;1.75;;;1.00;;
66087;SDS011;52872;52.994;6.940;2023-04-03T00:16:01;1.10;;;1.00;;
66087;SDS011;52872;52.994;6.940;2023-04-03T00:18:29;1.20;;;0.93;;
66087;SDS011;52872;52.994;6.940;2023-04-03T00:20:57;2.83;;;1.52;;
66087;SDS011;52872;52.994;6.940;2023-04-03T00:23:24;2.05;;;0.98;;
66087;SDS011;52872;52.994;6.940;2023-04-03T00:25:51;4.28;;;1.30;;
66087;SDS011;52872;52.994;6.940;2023-04-03T00:28:19;4.18;;;1.40;;
66087;SDS011;52872;52.994;6.940;2023-04-03T00:30:48;2.28;;;1.35;;
66087;SDS011;52872;52.994;6.940;2023-04-03T00:33:16;2.58;;;1.35;;
66087;SDS011;52872;52.994;6.940;2023-04-03T00:35:43;1.23;;;1.13;;
66087;SDS011;52872;52.994;6.940;2023-04-03T00:38:10;1.50;;;1.20;;
66087;SDS011;52872;52.994;6.940;2023-04-03T00:40:38;2.80;;;1.20;;
66087;SDS011;52872;52.994;6.940;2023-04-03T00:43:17;2.20;;;1.20;;
66087;SDS011;52872;52.994;6.940;2023-04-03T00:45:49;3.45;;;1.13;;
66087;SDS011;52872;52.994;6.940;2023-04-03T00:48:19;2.20;;;1.13;;
66087;SDS011;52872;52.994;6.940;2023-04-03T00:50:49;1.85;;;1.10;;
66087;SDS011;52872;52.994;6.940;2023-04-03T00:53:27;2.15;;;1.23;;
66087;SDS011;52872;52.994;6.940;2023-04-03T00:55:59;1.30;;;1.20;;
66087;SDS011;52872;52.994;6.940;2023-04-03T00:58:32;2.30;;;1.30;;
66087;SDS011;52872;52.994;6.940;2023-04-03T01:01:05;2.15;;;1.10;;
66087;SDS011;52872;52.994;6.940;2023-04-03T01:03:34;1.80;;;1.10;;
66087;SDS011;52872;52.994;6.940;2023-04-03T01:06:03;1.70;;;1.20;;
66087;SDS011;52872;52.994;6.940;2023-04-03T01:08:31;2.60;;;1.58;;
66087;SDS011;52872;52.994;6.940;2023-04-03T01:10:58;3.40;;;1.33;;
66087;SDS011;52872;52.994;6.940;2023-04-03T01:13:27;3.05;;;1.30;;
66087;SDS011;52872;52.994;6.940;2023-04-03T01:15:56;1.33;;;1.23;;
66087;SDS011;52872;52.994;6.940;2023-04-03T01:18:24;1.63;;;1.00;;
66087;SDS011;52872;52.994;6.940;2023-04-03T01:23:29;2.72;;;1.38;;
66087;SDS011;52872;52.994;6.940;2023-04-03T01:26:00;2.03;;;1.00;;
66087;SDS011;52872;52.994;6.940;2023-04-03T01:28:33;3.08;;;1.40;;
66087;SDS011;52872;52.994;6.940;2023-04-03T01:33:50;3.67;;;1.45;;
66087;SDS011;52872;52.994;6.940;2023-04-03T01:36:20;1.55;;;1.20;;
66087;SDS011;52872;52.994;6.940;2023-04-03T01:38:50;4.03;;;1.58;;
66087;SDS011;52872;52.994;6.940;2023-04-03T01:41:18;2.38;;;1.15;;
66087;SDS011;52872;52.994;6.940;2023-04-03T01:43:48;1.75;;;1.45;;
66087;SDS011;52872;52.994;6.940;2023-04-03T01:46:16;4.70;;;1.83;;
66087;SDS011;52872;52.994;6.940;2023-04-03T01:48:43;3.03;;;1.67;;
66087;SDS011;52872;52.994;6.940;2023-04-03T01:51:10;5.53;;;1.42;;
66087;SDS011;52872;52.994;6.940;2023-04-03T01:53:37;3.08;;;1.67;;
66087;SDS011;52872;52.994;6.940;2023-04-03T01:56:04;3.53;;;1.40;;
66087;SDS011;52872;52.994;6.940;2023-04-03T01:58:32;2.60;;;1.60;;
66087;SDS011;52872;52.994;6.940;2023-04-03T02:00:59;3.10;;;1.65;;
66087;SDS011;52872;52.994;6.940;2023-04-03T02:03:28;2.95;;;1.70;;
66087;SDS011;52872;52.994;6.940;2023-04-03T02:05:55;4.80;;;1.63;;
66087;SDS011;52872;52.994;6.940;2023-04-03T02:08:22;3.60;;;1.80;;
66087;SDS011;52872;52.994;6.940;2023-04-03T02:10:49;3.17;;;1.52;;
66087;SDS011;52872;52.994;6.940;2023-04-03T02:13:17;2.40;;;1.50;;
66087;SDS011;52872;52.994;6.940;2023-04-03T02:15:44;2.08;;;1.45;;
66087;SDS011;52872;52.994;6.940;2023-04-03T02:18:15;2.65;;;1.50;;
66087;SDS011;52872;52.994;6.940;2023-04-03T02:20:42;3.92;;;1.80;;
66087;SDS011;52872;52.994;6.940;2023-04-03T02:23:10;3.55;;;1.50;;
66087;SDS011;52872;52.994;6.940;2023-04-03T02:25:37;3.22;;;1.52;;
66087;SDS011;52872;52.994;6.940;2023-04-03T02:28:04;2.58;;;1.63;;
66087;SDS011;52872;52.994;6.940;2023-04-03T02:30:31;4.28;;;1.63;;
66087;SDS011;52872;52.994;6.940;2023-04-03T02:32:58;3.72;;;1.42;;
66087;SDS011;52872;52.994;6.940;2023-04-03T02:35:26;3.53;;;1.75;;
66087;SDS011;52872;52.994;6.940;2023-04-03T02:37:55;3.83;;;1.55;;
66087;SDS011;52872;52.994;6.940;2023-04-03T02:40:23;3.92;;;1.77;;
66087;SDS011;52872;52.994;6.940;2023-04-03T02:42:50;2.92;;;1.45;;
66087;SDS011;52872;52.994;6.940;2023-04-03T02:45:18;4.20;;;2.13;;
66087;SDS011;52872;52.994;6.940;2023-04-03T02:47:45;3.45;;;1.92;;
66087;SDS011;52872;52.994;6.940;2023-04-03T02:50:12;4.15;;;1.85;;
66087;SDS011;52872;52.994;6.940;2023-04-03T02:52:39;4.05;;;1.70;;
66087;SDS011;52872;52.994;6.940;2023-04-03T02:55:06;2.92;;;1.55;;
66087;SDS011;52872;52.994;6.940;2023-04-03T02:57:33;4.65;;;1.80;;
66087;SDS011;52872;52.994;6.940;2023-04-03T03:00:01;4.60;;;1.92;;
66087;SDS011;52872;52.994;6.940;2023-04-03T03:02:29;3.58;;;1.90;;
66087;SDS011;52872;52.994;6.940;2023-04-03T03:04:56;3.90;;;1.85;;
66087;SDS011;52872;52.994;6.940;2023-04-03T03:07:23;3.88;;;1.90;;
66087;SDS011;52872;52.994;6.940;2023-04-03T03:09:50;5.35;;;1.88;;
66087;SDS011;52872;52.994;6.940;2023-04-03T03:12:17;5.53;;;2.10;;
66087;SDS011;52872;52.994;6.940;2023-04-03T03:14:48;4.82;;;2.35;;
66087;SDS011;52872;52.994;6.940;2023-04-03T03:17:15;3.83;;;1.73;;
66087;SDS011;52872;52.994;6.940;2023-04-03T03:19:43;4.20;;;2.22;;
66087;SDS011;52872;52.994;6.940;2023-04-03T03:22:12;4.20;;;1.80;;
66087;SDS011;52872;52.994;6.940;2023-04-03T03:24:39;4.43;;;2.00;;
66087;SDS011;52872;52.994;6.940;2023-04-03T03:27:05;3.80;;;2.25;;
66087;SDS011;52872;52.994;6.940;2023-04-03T03:29:32;3.97;;;2.28;;
66087;SDS011;52872;52.994;6.940;2023-04-03T03:32:00;5.25;;;1.98;;
66087;SDS011;52872;52.994;6.940;2023-04-03T03:34:27;6.35;;;2.10;;
66087;SDS011;52872;52.994;6.940;2023-04-03T03:36:54;3.72;;;2.00;;
66087;SDS011;52872;52.994;6.940;2023-04-03T03:39:21;4.00;;;2.03;;
66087;SDS011;52872;52.994;6.940;2023-04-03T03:41:48;5.30;;;2.30;;
66087;SDS011;52872;52.994;6.940;2023-04-03T03:44:16;6.53;;;2.20;;
66087;SDS011;52872;52.994;6.940;2023-04-03T03:46:43;4.57;;;2.38;;
66087;SDS011;52872;52.994;6.940;2023-04-03T03:49:10;3.95;;;2.20;;
66087;SDS011;52872;52.994;6.940;2023-04-03T03:51:38;4.90;;;2.70;;
66087;SDS011;52872;52.994;6.940;2023-04-03T03:54:06;6.07;;;2.85;;
66087;SDS011;52872;52.994;6.940;2023-04-03T03:56:34;5.57;;;2.47;;
66087;SDS011;52872;52.994;6.940;2023-04-03T03:59:01;7.65;;;2.72;;
66087;SDS011;52872;52.994;6.940;2023-04-03T04:01:30;6.93;;;2.60;;
66087;SDS011;52872;52.994;6.940;2023-04-03T04:03:57;8.30;;;3.33;;
66087;SDS011;52872;52.994;6.940;2023-04-03T04:06:28;2.90;;;2.40;;
66087;SDS011;52872;52.994;6.940;2023-04-03T04:08:59;4.88;;;2.47;;
66087;SDS011;52872;52.994;6.940;2023-04-03T04:11:27;3.65;;;2.35;;
66087;SDS011;52872;52.994;6.940;2023-04-03T04:13:55;5.47;;;2.88;;
66087;SDS011;52872;52.994;6.940;2023-04-03T04:16:25;4.32;;;2.95;;
66087;SDS011;52872;52.994;6.940;2023-04-03T04:18:53;7.40;;;3.47;;
66087;SDS011;52872;52.994;6.940;2023-04-03T04:21:20;6.72;;;2.90;;
66087;SDS011;52872;52.994;6.940;2023-04-03T04:23:49;8.02;;;2.95;;
66087;SDS011;52872;52.994;6.940;2023-04-03T04:26:16;6.45;;;2.85;;
66087;SDS011;52872;52.994;6.940;2023-04-03T04:28:43;5.03;;;3.03;;
66087;SDS011;52872;52.994;6.940;2023-04-03T04:31:10;8.90;;;3.17;;
66087;SDS011;52872;52.994;6.940;2023-04-03T04:33:37;4.50;;;2.72;;
66087;SDS011;52872;52.994;6.940;2023-04-03T04:36:06;7.88;;;3.13;;
66087;SDS011;52872;52.994;6.940;2023-04-03T04:38:34;6.97;;;3.38;;
66087;SDS011;52872;52.994;6.940;2023-04-03T04:41:01;9.25;;;3.28;;
66087;SDS011;52872;52.994;6.940;2023-04-03T04:43:28;4.25;;;3.00;;
66087;SDS011;52872;52.994;6.940;2023-04-03T04:46:03;7.20;;;3.22;;
66087;SDS011;52872;52.994;6.940;2023-04-03T04:48:35;5.72;;;3.15;;
66087;SDS011;52872;52.994;6.940;2023-04-03T04:51:03;6.47;;;3.38;;
66087;SDS011;52872;52.994;6.940;2023-04-03T04:53:31;6.93;;;3.38;;
66087;SDS011;52872;52.994;6.940;2023-04-03T04:55:59;6.20;;;3.17;;
66087;SDS011;52872;52.994;6.940;2023-04-03T04:58:26;7.18;;;3.10;;
66087;SDS011;52872;52.994;6.940;2023-04-03T05:03:29;9.73;;;3.75;;
66087;SDS011;52872;52.994;6.940;2023-04-03T05:05:56;8.85;;;3.63;;
66087;SDS011;52872;52.994;6.940;2023-04-03T05:08:23;8.27;;;3.45;;
66087;SDS011;52872;52.994;6.940;2023-04-03T05:10:50;8.43;;;3.58;;
66087;SDS011;52872;52.994;6.940;2023-04-03T05:13:20;7.20;;;3.63;;
66087;SDS011;52872;52.994;6.940;2023-04-03T05:15:47;7.13;;;3.92;;
66087;SDS011;52872;52.994;6.940;2023-04-03T05:18:14;9.82;;;4.13;;
66087;SDS011;52872;52.994;6.940;2023-04-03T05:20:42;11.93;;;4.20;;
66087;SDS011;52872;52.994;6.940;2023-04-03T05:23:10;8.70;;;3.70;;
66087;SDS011;52872;52.994;6.940;2023-04-03T05:25:38;7.45;;;4.13;;
66087;SDS011;52872;52.994;6.940;2023-04-03T05:28:08;8.25;;;4.55;;
66087;SDS011;52872;52.994;6.940;2023-04-03T05:30:35;8.85;;;4.00;;
66087;SDS011;52872;52.994;6.940;2023-04-03T05:33:03;6.78;;;3.55;;
66087;SDS011;52872;52.994;6.940;2023-04-03T05:35:37;6.07;;;3.63;;
66087;SDS011;52872;52.994;6.940;2023-04-03T05:38:10;6.55;;;4.38;;
66087;SDS011;52872;52.994;6.940;2023-04-03T05:40:37;8.45;;;3.58;;
66087;SDS011;52872;52.994;6.940;2023-04-03T05:43:05;7.10;;;4.07;;
66087;SDS011;52872;52.994;6.940;2023-04-03T05:45:35;6.53;;;4.03;;
66087;SDS011;52872;52.994;6.940;2023-04-03T05:48:02;9.48;;;3.53;;
66087;SDS011;52872;52.994;6.940;2023-04-03T05:50:30;7.55;;;3.55;;
66087;SDS011;52872;52.994;6.940;2023-04-03T05:52:57;6.28;;;3.60;;
66087;SDS011;52872;52.994;6.940;2023-04-03T05:55:27;9.93;;;3.78;;
66087;SDS011;52872;52.994;6.940;2023-04-03T05:57:54;7.32;;;3.85;;
66087;SDS011;52872;52.994;6.940;2023-04-03T06:00:21;6.57;;;3.78;;
66087;SDS011;52872;52.994;6.940;2023-04-03T06:02:58;6.70;;;3.40;;
66087;SDS011;52872;52.994;6.940;2023-04-03T06:05:25;6.72;;;3.20;;
66087;SDS011;52872;52.994;6.940;2023-04-03T06:07:52;8.18;;;3.38;;
66087;SDS011;52872;52.994;6.940;2023-04-03T06:10:19;8.25;;;3.38;;
66087;SDS011;52872;52.994;6.940;2023-04-03T06:12:46;5.28;;;3.15;;
66087;SDS011;52872;52.994;6.940;2023-04-03T06:15:13;6.40;;;3.00;;
66087;SDS011;52872;52.994;6.940;2023-04-03T06:17:41;5.80;;;3.05;;
66087;SDS011;52872;52.994;6.940;2023-04-03T06:20:09;5.03;;;3.13;;
66087;SDS011;52872;52.994;6.940;2023-04-03T06:22:36;3.72;;;2.63;;
66087;SDS011;52872;52.994;6.940;2023-04-03T06:25:03;5.97;;;2.53;;
66087;SDS011;52872;52.994;6.940;2023-04-03T06:27:31;6.43;;;2.70;;
66087;SDS011;52872;52.994;6.940;2023-04-03T06:29:58;5.90;;;3.45;;
66087;SDS011;52872;52.994;6.940;2023-04-03T06:32:25;3.67;;;2.67;;
66087;SDS011;52872;52.994;6.940;2023-04-03T06:34:52;6.22;;;2.75;;
66087;SDS011;52872;52.994;6.940;2023-04-03T06:37:21;6.00;;;2.70;;
66087;SDS011;52872;52.994;6.940;2023-04-03T06:39:49;6.05;;;2.95;;
66087;SDS011;52872;52.994;6.940;2023-04-03T06:42:16;5.30;;;2.85;;
66087;SDS011;52872;52.994;6.940;2023-04-03T06:44:54;7.75;;;3.25;;
66087;SDS011;52872;52.994;6.940;2023-04-03T06:47:21;5.70;;;2.55;;
66087;SDS011;52872;52.994;6.940;2023-04-03T06:49:47;8.35;;;2.72;;
66087;SDS011;52872;52.994;6.940;2023-04-03T06:52:14;4.85;;;2.67;;
66087;SDS011;52872;52.994;6.940;2023-04-03T06:54:41;3.33;;;2.55;;
66087;SDS011;52872;52.994;6.940;2023-04-03T06:57:08;7.05;;;3.05;;
66087;SDS011;52872;52.994;6.940;2023-04-03T06:59:35;4.13;;;2.80;;
66087;SDS011;52872;52.994;6.940;2023-04-03T07:02:03;2.90;;;2.53;;
66087;SDS011;52872;52.994;6.940;2023-04-03T07:04:30;4.68;;;2.50;;
66087;SDS011;52872;52.994;6.940;2023-04-03T07:06:57;5.25;;;2.92;;
66087;SDS011;52872;52.994;6.940;2023-04-03T07:09:24;3.97;;;2.53;;
66087;SDS011;52872;52.994;6.940;2023-04-03T07:11:51;6.03;;;2.67;;
66087;SDS011;52872;52.994;6.940;2023-04-03T07:14:18;4.70;;;2.85;;
66087;SDS011;52872;52.994;6.940;2023-04-03T07:16:45;5.97;;;2.58;;
66087;SDS011;52872;52.994;6.940;2023-04-03T07:19:12;4.70;;;2.83;;
66087;SDS011;52872;52.994;6.940;2023-04-03T07:21:39;5.13;;;2.70;;
66087;SDS011;52872;52.994;6.940;2023-04-03T07:24:08;3.45;;;2.45;;
66087;SDS011;52872;52.994;6.940;2023-04-03T07:26:36;4.78;;;2.70;;
66087;SDS011;52872;52.994;6.940;2023-04-03T07:29:03;4.93;;;2.50;;
66087;SDS011;52872;52.994;6.940;2023-04-03T07:31:30;4.60;;;2.50;;
66087;SDS011;52872;52.994;6.940;2023-04-03T07:33:57;6.15;;;3.00;;
66087;SDS011;52872;52.994;6.940;2023-04-03T07:36:24;5.57;;;3.45;;
66087;SDS011;52872;52.994;6.940;2023-04-03T07:38:51;4.72;;;2.85;;
66087;SDS011;52872;52.994;6.940;2023-04-03T07:41:18;6.20;;;3.25;;
66087;SDS011;52872;52.994;6.940;2023-04-03T07:43:48;3.33;;;2.75;;
66087;SDS011;52872;52.994;6.940;2023-04-03T07:46:16;3.75;;;2.92;;
66087;SDS011;52872;52.994;6.940;2023-04-03T07:48:43;5.50;;;2.88;;
66087;SDS011;52872;52.994;6.940;2023-04-03T07:51:11;4.25;;;3.03;;
66087;SDS011;52872;52.994;6.940;2023-04-03T07:53:39;3.28;;;2.40;;
66087;SDS011;52872;52.994;6.940;2023-04-03T07:56:06;3.75;;;2.70;;
66087;SDS011;52872;52.994;6.940;2023-04-03T07:58:34;2.47;;;2.25;;
66087;SDS011;52872;52.994;6.940;2023-04-03T08:01:01;4.47;;;2.50;;
66087;SDS011;52872;52.994;6.940;2023-04-03T08:03:28;6.13;;;3.33;;
66087;SDS011;52872;52.994;6.940;2023-04-03T08:05:55;6.00;;;3.85;;
66087;SDS011;52872;52.994;6.940;2023-04-03T08:08:30;7.85;;;7.35;;
66087;SDS011;52872;52.994;6.940;2023-04-03T08:10:59;12.20;;;11.30;;
66087;SDS011;52872;52.994;6.940;2023-04-03T08:13:29;4.90;;;4.50;;
66087;SDS011;52872;52.994;6.940;2023-04-03T08:15:57;5.60;;;5.10;;
66087;SDS011;52872;52.994;6.940;2023-04-03T08:18:25;10.43;;;9.98;;
66087;SDS011;52872;52.994;6.940;2023-04-03T08:20:53;4.88;;;4.57;;
66087;SDS011;52872;52.994;6.940;2023-04-03T08:23:19;8.10;;;7.60;;
66087;SDS011;52872;52.994;6.940;2023-04-03T08:25:47;6.18;;;5.75;;
66087;SDS011;52872;52.994;6.940;2023-04-03T08:28:14;4.78;;;4.45;;
66087;SDS011;52872;52.994;6.940;2023-04-03T08:30:41;6.53;;;6.03;;
66087;SDS011;52872;52.994;6.940;2023-04-03T08:33:09;9.55;;;9.02;;
66087;SDS011;52872;52.994;6.940;2023-04-03T08:35:39;9.60;;;8.95;;
66087;SDS011;52872;52.994;6.940;2023-04-03T08:38:08;5.70;;;5.22;;
66087;SDS011;52872;52.994;6.940;2023-04-03T08:40:35;3.42;;;1.90;;
66087;SDS011;52872;52.994;6.940;2023-04-03T08:50:43;5.78;;;2.03;;
66087;SDS011;52872;52.994;6.940;2023-04-03T08:53:26;2.83;;;1.95;;
66087;SDS011;52872;52.994;6.940;2023-04-03T08:55:58;2.47;;;1.90;;
66087;SDS011;52872;52.994;6.940;2023-04-03T08:58:32;2.05;;;1.65;;
66087;SDS011;52872;52.994;6.940;2023-04-03T09:01:40;3.10;;;2.15;;
66087;SDS011;52872;52.994;6.940;2023-04-03T09:04:02;4.13;;;2.00;;
66087;SDS011;52872;52.994;6.940;2023-04-03T09:06:31;3.05;;;1.73;;
66087;SDS011;52872;52.994;6.940;2023-04-03T09:20:20;3.38;;;1.65;;
66087;SDS011;52872;52.994;6.940;2023-04-03T09:22:52;7.07;;;1.30;;
66087;SDS011;52872;52.994;6.940;2023-04-03T09:28:08;2.67;;;1.30;;
66087;SDS011;52872;52.994;6.940;2023-04-03T09:30:36;2.03;;;1.10;;
66087;SDS011;52872;52.994;6.940;2023-04-03T09:33:05;1.60;;;1.10;;
66087;SDS011;52872;52.994;6.940;2023-04-03T09:35:34;1.95;;;1.13;;
66087;SDS011;52872;52.994;6.940;2023-04-03T09:43:54;2.97;;;1.27;;
66087;SDS011;52872;52.994;6.940;2023-04-03T09:46:33;2.15;;;1.05;;
66087;SDS011;52872;52.994;6.940;2023-04-03T09:49:02;3.30;;;1.25;;
66087;SDS011;52872;52.994;6.940;2023-04-03T09:51:34;1.50;;;1.02;;
66087;SDS011;52872;52.994;6.940;2023-04-03T09:54:20;2.25;;;1.35;;
66087;SDS011;52872;52.994;6.940;2023-04-03T09:56:57;3.08;;;1.40;;
66087;SDS011;52872;52.994;6.940;2023-04-03T09:59:34;1.50;;;1.10;;
66087;SDS011;52872;52.994;6.940;2023-04-03T10:02:03;1.83;;;1.10;;
66087;SDS011;52872;52.994;6.940;2023-04-03T10:04:50;2.05;;;1.10;;
66087;SDS011;52872;52.994;6.940;2023-04-03T10:07:35;2.17;;;1.20;;
66087;SDS011;52872;52.994;6.940;2023-04-03T10:10:16;1.20;;;1.10;;
66087;SDS011;52872;52.994;6.940;2023-04-03T10:13:03;1.27;;;1.00;;
66087;SDS011;52872;52.994;6.940;2023-04-03T10:15:34;2.55;;;1.17;;
66087;SDS011;52872;52.994;6.940;2023-04-03T10:18:25;3.03;;;1.20;;
66087;SDS011;52872;52.994;6.940;2023-04-03T10:21:09;3.25;;;1.20;;
66087;SDS011;52872;52.994;6.940;2023-04-03T10:24:10;2.20;;;1.10;;
66087;SDS011;52872;52.994;6.940;2023-04-03T10:27:09;1.95;;;1.00;;
66087;SDS011;52872;52.994;6.940;2023-04-03T10:48:40;1.33;;;1.20;;
66087;SDS011;52872;52.994;6.940;2023-04-03T10:51:29;2.08;;;1.20;;
66087;SDS011;52872;52.994;6.940;2023-04-03T10:57:00;3.15;;;1.10;;
66087;SDS011;52872;52.994;6.940;2023-04-03T11:02:25;4.47;;;1.53;;
66087;SDS011;52872;52.994;6.940;2023-04-03T11:05:01;2.08;;;1.10;;
66087;SDS011;52872;52.994;6.940;2023-04-03T11:07:41;2.03;;;1.20;;
66087;SDS011;52872;52.994;6.940;2023-04-03T11:10:17;1.20;;;1.08;;
66087;SDS011;52872;52.994;6.940;2023-04-03T11:13:11;1.55;;;1.05;;
66087;SDS011;52872;52.994;6.940;2023-04-03T11:15:51;2.80;;;1.20;;
66087;SDS011;52872;52.994;6.940;2023-04-03T11:18:27;1.63;;;0.98;;
66087;SDS011;52872;52.994;6.940;2023-04-03T11:21:17;1.75;;;0.75;;
66087;SDS011;52872;52.994;6.940;2023-04-03T11:23:52;3.03;;;1.13;;
66087;SDS011;52872;52.994;6.940;2023-04-03T11:26:26;2.78;;;1.20;;
66087;SDS011;52872;52.994;6.940;2023-04-03T11:29:01;2.53;;;1.20;;
66087;SDS011;52872;52.994;6.940;2023-04-03T11:34:49;2.65;;;0.98;;
66087;SDS011;52872;52.994;6.940;2023-04-03T11:37:24;1.65;;;1.20;;
66087;SDS011;52872;52.994;6.940;2023-04-03T11:40:06;4.85;;;1.27;;
66087;SDS011;52872;52.994;6.940;2023-04-03T11:50:49;1.67;;;1.42;;
66087;SDS011;52872;52.994;6.940;2023-04-03T11:58:18;2.53;;;1.40;;
66087;SDS011;52872;52.994;6.940;2023-04-03T12:01:00;3.63;;;1.42;;
66087;SDS011;52872;52.994;6.940;2023-04-03T12:03:30;1.55;;;1.27;;
66087;SDS011;52872;52.994;6.940;2023-04-03T12:13:35;5.30;;;1.02;;
66087;SDS011;52872;52.994;6.940;2023-04-03T12:22:13;2.30;;;1.33;;
66087;SDS011;52872;52.994;6.940;2023-04-03T12:24:43;2.92;;;1.27;;
66087;SDS011;52872;52.994;6.940;2023-04-03T12:46:20;4.55;;;1.73;;
66087;SDS011;52872;52.994;6.940;2023-04-03T12:48:57;3.17;;;1.17;;
66087;SDS011;52872;52.994;6.940;2023-04-03T12:54:11;2.10;;;1.13;;
66087;SDS011;52872;52.994;6.940;2023-04-03T12:56:42;1.50;;;1.40;;
66087;SDS011;52872;52.994;6.940;2023-04-03T12:59:20;2.92;;;1.60;;
66087;SDS011;52872;52.994;6.940;2023-04-03T13:02:00;2.17;;;1.30;;
66087;SDS011;52872;52.994;6.940;2023-04-03T13:04:28;4.60;;;1.25;;
66087;SDS011;52872;52.994;6.940;2023-04-03T13:06:56;2.33;;;1.35;;
66087;SDS011;52872;52.994;6.940;2023-04-03T13:09:25;3.25;;;1.52;;
66087;SDS011;52872;52.994;6.940;2023-04-03T13:12:08;3.15;;;1.50;;
66087;SDS011;52872;52.994;6.940;2023-04-03T13:14:38;2.37;;;1.30;;
66087;SDS011;52872;52.994;6.940;2023-04-03T13:17:14;1.92;;;1.50;;
66087;SDS011;52872;52.994;6.940;2023-04-03T13:19:43;2.85;;;1.48;;
66087;SDS011;52872;52.994;6.940;2023-04-03T13:22:23;2.65;;;1.42;;
66087;SDS011;52872;52.994;6.940;2023-04-03T13:24:54;2.13;;;1.25;;
66087;SDS011;52872;52.994;6.940;2023-04-03T13:27:23;2.78;;;1.45;;
66087;SDS011;52872;52.994;6.940;2023-04-03T13:29:50;4.28;;;1.63;;
66087;SDS011;52872;52.994;6.940;2023-04-03T13:32:21;4.05;;;1.60;;
66087;SDS011;52872;52.994;6.940;2023-04-03T13:34:50;1.48;;;1.27;;
66087;SDS011;52872;52.994;6.940;2023-04-03T13:42:36;3.13;;;1.60;;
66087;SDS011;52872;52.994;6.940;2023-04-03T13:48:09;3.22;;;2.15;;
66087;SDS011;52872;52.994;6.940;2023-04-03T13:53:20;2.30;;;1.60;;
66087;SDS011;52872;52.994;6.940;2023-04-03T13:56:04;2.35;;;1.50;;
66087;SDS011;52872;52.994;6.940;2023-04-03T13:58:34;1.60;;;0.90;;
66087;SDS011;52872;52.994;6.940;2023-04-03T14:01:10;2.15;;;1.05;;
66087;SDS011;52872;52.994;6.940;2023-04-03T14:06:08;1.17;;;0.90;;
66087;SDS011;52872;52.994;6.940;2023-04-03T14:08:38;1.45;;;1.10;;
66087;SDS011;52872;52.994;6.940;2023-04-03T14:11:22;2.42;;;1.40;;
66087;SDS011;52872;52.994;6.940;2023-04-03T14:13:55;1.30;;;1.20;;
66087;SDS011;52872;52.994;6.940;2023-04-03T14:16:27;2.25;;;1.10;;
66087;SDS011;52872;52.994;6.940;2023-04-03T14:18:57;1.95;;;1.10;;
66087;SDS011;52872;52.994;6.940;2023-04-03T14:21:24;1.40;;;1.30;;
66087;SDS011;52872;52.994;6.940;2023-04-03T14:23:52;2.53;;;1.48;;
66087;SDS011;52872;52.994;6.940;2023-04-03T14:26:20;2.67;;;1.35;;
66087;SDS011;52872;52.994;6.940;2023-04-03T14:31:49;3.45;;;1.52;;
66087;SDS011;52872;52.994;6.940;2023-04-03T14:34:23;3.80;;;1.65;;
66087;SDS011;52872;52.994;6.940;2023-04-03T14:36:50;1.67;;;1.33;;
66087;SDS011;52872;52.994;6.940;2023-04-03T14:39:18;1.95;;;1.40;;
66087;SDS011;52872;52.994;6.940;2023-04-03T14:41:46;2.67;;;1.38;;
66087;SDS011;52872;52.994;6.940;2023-04-03T14:44:13;2.00;;;1.10;;
66087;SDS011;52872;52.994;6.940;2023-04-03T14:46:41;1.95;;;1.35;;
66087;SDS011;52872;52.994;6.940;2023-04-03T14:49:23;1.90;;;1.20;;
66087;SDS011;52872;52.994;6.940;2023-04-03T14:51:54;3.45;;;1.20;;
66087;SDS011;52872;52.994;6.940;2023-04-03T14:54:22;2.15;;;1.17;;
66087;SDS011;52872;52.994;6.940;2023-04-03T14:56:54;2.45;;;1.27;;
66087;SDS011;52872;52.994;6.940;2023-04-03T14:59:24;1.27;;;1.15;;
66087;SDS011;52872;52.994;6.940;2023-04-03T15:01:51;1.27;;;1.17;;
66087;SDS011;52872;52.994;6.940;2023-04-03T15:04:19;2.00;;;1.20;;
66087;SDS011;52872;52.994;6.940;2023-04-03T15:06:47;1.40;;;1.13;;
66087;SDS011;52872;52.994;6.940;2023-04-03T15:09:18;1.52;;;0.90;;
66087;SDS011;52872;52.994;6.940;2023-04-03T15:11:53;1.45;;;1.10;;
66087;SDS011;52872;52.994;6.940;2023-04-03T15:14:21;1.45;;;0.90;;
66087;SDS011;52872;52.994;6.940;2023-04-03T15:16:54;1.20;;;1.00;;
66087;SDS011;52872;52.994;6.940;2023-04-03T15:19:23;1.08;;;1.00;;
66087;SDS011;52872;52.994;6.940;2023-04-03T15:21:50;1.58;;;1.10;;
66087;SDS011;52872;52.994;6.940;2023-04-03T15:24:17;2.97;;;1.55;;
66087;SDS011;52872;52.994;6.940;2023-04-03T15:26:44;1.20;;;1.08;;
66087;SDS011;52872;52.994;6.940;2023-04-03T15:29:11;3.35;;;1.02;;
66087;SDS011;52872;52.994;6.940;2023-04-03T15:31:38;2.83;;;1.52;;
66087;SDS011;52872;52.994;6.940;2023-04-03T15:34:05;2.17;;;1.30;;
66087;SDS011;52872;52.994;6.940;2023-04-03T15:36:32;1.90;;;1.70;;
66087;SDS011;52872;52.994;6.940;2023-04-03T15:39:00;1.67;;;1.10;;
66087;SDS011;52872;52.994;6.940;2023-04-03T15:41:27;2.42;;;1.50;;
66087;SDS011;52872;52.994;6.940;2023-04-03T15:43:54;2.35;;;1.20;;
66087;SDS011;52872;52.994;6.940;2023-04-03T15:46:21;2.65;;;1.48;;
66087;SDS011;52872;52.994;6.940;2023-04-03T15:48:48;2.53;;;1.52;;
66087;SDS011;52872;52.994;6.940;2023-04-03T15:51:15;2.55;;;1.30;;
66087;SDS011;52872;52.994;6.940;2023-04-03T15:53:42;0.90;;;0.90;;
66087;SDS011;52872;52.994;6.940;2023-04-03T15:56:09;1.10;;;1.10;;
66087;SDS011;52872;52.994;6.940;2023-04-03T15:58:38;1.73;;;1.20;;
66087;SDS011;52872;52.994;6.940;2023-04-03T16:01:06;1.45;;;1.23;;
66087;SDS011;52872;52.994;6.940;2023-04-03T16:03:35;2.47;;;1.30;;
66087;SDS011;52872;52.994;6.940;2023-04-03T16:06:02;1.70;;;1.23;;
66087;SDS011;52872;52.994;6.940;2023-04-03T16:08:29;2.50;;;1.30;;
66087;SDS011;52872;52.994;6.940;2023-04-03T16:10:56;2.33;;;1.33;;
66087;SDS011;52872;52.994;6.940;2023-04-03T16:13:23;1.80;;;1.30;;
66087;SDS011;52872;52.994;6.940;2023-04-03T16:15:50;1.80;;;1.30;;
66087;SDS011;52872;52.994;6.940;2023-04-03T16:18:17;2.30;;;1.10;;
66087;SDS011;52872;52.994;6.940;2023-04-03T16:20:44;2.08;;;1.23;;
66087;SDS011;52872;52.994;6.940;2023-04-03T16:23:13;2.10;;;1.45;;
66087;SDS011;52872;52.994;6.940;2023-04-03T16:25:40;2.05;;;1.30;;
66087;SDS011;52872;52.994;6.940;2023-04-03T16:28:12;1.20;;;1.10;;
66087;SDS011;52872;52.994;6.940;2023-04-03T16:30:40;1.10;;;1.00;;
66087;SDS011;52872;52.994;6.940;2023-04-03T16:33:08;1.52;;;1.40;;
66087;SDS011;52872;52.994;6.940;2023-04-03T16:35:36;3.05;;;1.55;;
66087;SDS011;52872;52.994;6.940;2023-04-03T16:38:03;3.00;;;1.20;;
66087;SDS011;52872;52.994;6.940;2023-04-03T16:40:30;1.85;;;1.40;;
66087;SDS011;52872;52.994;6.940;2023-04-03T16:43:03;1.45;;;1.35;;
66087;SDS011;52872;52.994;6.940;2023-04-03T16:45:30;3.08;;;1.73;;
66087;SDS011;52872;52.994;6.940;2023-04-03T16:47:57;3.83;;;1.40;;
66087;SDS011;52872;52.994;6.940;2023-04-03T16:50:24;2.30;;;1.38;;
66087;SDS011;52872;52.994;6.940;2023-04-03T16:52:51;2.33;;;1.33;;
66087;SDS011;52872;52.994;6.940;2023-04-03T16:55:18;2.33;;;1.33;;
66087;SDS011;52872;52.994;6.940;2023-04-03T16:57:46;1.77;;;1.20;;
66087;SDS011;52872;52.994;6.940;2023-04-03T17:00:13;4.20;;;1.50;;
66087;SDS011;52872;52.994;6.940;2023-04-03T17:02:41;1.73;;;1.10;;
66087;SDS011;52872;52.994;6.940;2023-04-03T17:05:08;2.65;;;1.42;;
66087;SDS011;52872;52.994;6.940;2023-04-03T17:07:35;2.53;;;1.08;;
66087;SDS011;52872;52.994;6.940;2023-04-03T17:10:02;1.92;;;1.25;;
66087;SDS011;52872;52.994;6.940;2023-04-03T17:12:29;4.20;;;1.48;;